MSC Federica — HPQE — position and weather

sailwx.info

Track history (hours):
 
Tides and Currents Weather Stations Pressure Air Temp Water Temp Dewpoint Dewpoint Depression Visibility Wind Speed Wind Dir Waves Ship Positions

MSC Federica

Last reported at 2016-Sep-24 18:31 UTC. Time now 2016-Sep-27 12:10 UTC.
Position N 01°49' E 102°32'.

Length 294 m; draft 14.2 m.

Type: Ship (hazmat cat A). MMSI: 357363000.

Date/timePositionNaut miles runAvg speedWind from/ knotsBaromVisibWave heightAir tempDewpointWater temp
2016-Sep-24 18:31N 01°49' E 102°32'7317.3
2016-Sep-24 14:17N 01°12' E 103°35'12 6.6
2016-Sep-24 12:30N 01°16' E 103°46'0 0.0
2016-Sep-24 10:30N 01°16' E 103°46'0 0.0
2016-Sep-24 09:30N 01°16' E 103°46'0 0.0
2016-Sep-23 13:09N 01°16' E 103°46'0 0.0
2016-Sep-23 09:13N 01°16' E 103°46'15 5.5
2016-Sep-23 06:34N 01°16' E 104°00'  
2016-Sep-18 10:31N 22°28' E 113°53'0 0.1
2016-Sep-18 09:31N 22°28' E 113°53'0 0.0
2016-Sep-18 02:25N 22°28' E 113°53'0 0.0
2016-Sep-18 01:29N 22°28' E 113°53'0 0.0
2016-Sep-18 00:32N 22°28' E 113°53'11 5.5
2016-Sep-17 22:30N 22°21' E 114°02'16712.9
2016-Sep-17 09:28N 22°56' E 116°60'49916.7
2016-Sep-16 03:34N 29°54' E 122°04'2 1.5
2016-Sep-16 02:31N 29°54' E 122°02'0 0.0
2016-Sep-16 00:25N 29°54' E 122°02'0 0.0
2016-Sep-15 20:31N 29°54' E 122°02'0 0.0
2016-Sep-15 18:13N 29°54' E 122°02'0 0.1
2016-Sep-15 12:32N 29°54' E 122°02'9 8.9
2016-Sep-15 11:33N 29°52' E 122°12'  
Track history (hours):
 
Tides and Currents Weather Stations Pressure Air Temp Water Temp Dewpoint Dewpoint Depression Visibility Wind Speed Wind Dir Waves Ship Positions

MSC Federica

Last reported at 2016-Sep-24 18:31 UTC. Time now 2016-Sep-27 12:10 UTC.
Position N 01°49' E 102°32'.

Length 294 m; draft 14.2 m.

Type: Ship (hazmat cat A). MMSI: 357363000.

Date/timePositionNaut miles runAvg speedWind from/ knotsBaromVisibWave heightAir tempDewpointWater temp
2016-Sep-24 18:31N 01°49' E 102°32'7317.3
2016-Sep-24 14:17N 01°12' E 103°35'12 6.6
2016-Sep-24 12:30N 01°16' E 103°46'0 0.0
2016-Sep-24 10:30N 01°16' E 103°46'0 0.0
2016-Sep-24 09:30N 01°16' E 103°46'0 0.0
2016-Sep-23 13:09N 01°16' E 103°46'0 0.0
2016-Sep-23 09:13N 01°16' E 103°46'15 5.5
2016-Sep-23 06:34N 01°16' E 104°00'  
2016-Sep-18 10:31N 22°28' E 113°53'0 0.1
2016-Sep-18 09:31N 22°28' E 113°53'0 0.0
2016-Sep-18 02:25N 22°28' E 113°53'0 0.0
2016-Sep-18 01:29N 22°28' E 113°53'0 0.0
2016-Sep-18 00:32N 22°28' E 113°53'11 5.5
2016-Sep-17 22:30N 22°21' E 114°02'16712.9
2016-Sep-17 09:28N 22°56' E 116°60'49916.7
2016-Sep-16 03:34N 29°54' E 122°04'2 1.5
2016-Sep-16 02:31N 29°54' E 122°02'0 0.0
2016-Sep-16 00:25N 29°54' E 122°02'0 0.0
2016-Sep-15 20:31N 29°54' E 122°02'0 0.0
2016-Sep-15 18:13N 29°54' E 122°02'0 0.1
2016-Sep-15 12:32N 29°54' E 122°02'9 8.9
2016-Sep-15 11:33N 29°52' E 122°12'  

Dump ship's entire track history